createdAt,value
2017-08-10T00:00:35.592Z,70.74
2017-08-10T00:03:05.091Z,70.58
2017-08-10T00:05:34.906Z,70.09
2017-08-10T00:08:04.748Z,69.65
2017-08-10T00:10:33.771Z,69.71
2017-08-10T00:13:02.877Z,70.13
2017-08-10T00:15:31.924Z,70.02
2017-08-10T00:18:01.003Z,69.66
2017-08-10T00:20:30.856Z,69.70
2017-08-10T00:22:59.897Z,70.46
2017-08-10T00:25:28.978Z,71.02
2017-08-10T00:27:58.047Z,71.04
2017-08-10T00:30:27.112Z,72.49
2017-08-10T00:32:56.183Z,71.84
2017-08-10T00:35:26.016Z,72.04
2017-08-10T00:37:55.445Z,71.93
2017-08-10T00:40:24.501Z,71.33
2017-08-10T00:42:54.310Z,71.14
2017-08-10T00:45:24.162Z,71.47
2017-08-10T00:47:53.205Z,72.01
2017-08-10T00:50:23.047Z,72.29
2017-08-10T00:52:52.110Z,72.45
2017-08-10T00:55:21.160Z,71.99
2017-08-10T00:57:50.478Z,72.27
2017-08-10T01:00:19.515Z,72.32
2017-08-10T01:02:49.351Z,72.91
2017-08-10T01:05:18.436Z,72.97
2017-08-10T01:07:47.606Z,72.56
2017-08-10T01:10:18.188Z,72.47
2017-08-10T01:12:47.246Z,72.14
2017-08-10T01:15:17.406Z,72.33
2017-08-10T01:17:46.480Z,73.07
2017-08-10T01:20:15.544Z,73.50
2017-08-10T01:22:44.606Z,73.79
2017-08-10T01:25:13.679Z,73.91
2017-08-10T01:27:42.731Z,73.83
2017-08-10T01:30:12.611Z,74.40
2017-08-10T01:32:41.674Z,73.89
2017-08-10T01:35:10.756Z,73.89
2017-08-10T01:37:39.805Z,73.85
2017-08-10T01:40:08.900Z,73.95
2017-08-10T01:42:37.978Z,73.66
2017-08-10T01:45:07.059Z,73.47
2017-08-10T01:47:36.192Z,73.46
2017-08-10T01:50:05.241Z,73.35
2017-08-10T01:52:34.315Z,73.49
2017-08-10T01:55:03.424Z,74.47
2017-08-10T01:57:32.503Z,74.66
2017-08-10T02:00:02.370Z,74.45
2017-08-10T02:02:31.425Z,74.63
2017-08-10T02:05:00.478Z,74.89
2017-08-10T02:07:29.525Z,75.08
2017-08-10T02:09:58.567Z,75.30
2017-08-10T02:12:27.642Z,74.61
2017-08-10T02:14:56.679Z,74.28
2017-08-10T02:17:26.513Z,74.37
2017-08-10T02:19:55.553Z,75.03
2017-08-10T02:22:24.611Z,75.58
2017-08-10T02:24:53.675Z,75.97
2017-08-10T02:27:23.478Z,76.58
2017-08-10T02:29:52.547Z,77.15
2017-08-10T02:32:21.640Z,77.25
2017-08-10T02:34:50.711Z,76.77
2017-08-10T02:37:19.754Z,77.01
2017-08-10T02:39:49.794Z,76.74
2017-08-10T02:42:19.861Z,76.79
2017-08-10T02:44:48.915Z,77.36
2017-08-10T02:47:17.982Z,77.03
2017-08-10T02:49:48.009Z,77.30
2017-08-10T02:52:17.036Z,76.60
2017-08-10T02:54:46.128Z,76.18
2017-08-10T02:57:15.388Z,76.38
2017-08-10T02:59:44.427Z,77.26
2017-08-10T03:02:13.507Z,77.20
2017-08-10T03:04:42.565Z,77.26
2017-08-10T03:07:11.614Z,77.08
2017-08-10T03:09:40.687Z,76.70
2017-08-10T03:12:09.768Z,77.33
2017-08-10T03:14:49.640Z,77.37
2017-08-10T03:17:18.738Z,76.93
2017-08-10T03:19:47.788Z,76.81
2017-08-10T03:22:17.771Z,77.26
2017-08-10T03:24:47.433Z,77.35
2017-08-10T03:27:17.250Z,77.54
2017-08-10T03:29:47.063Z,77.19
2017-08-10T03:32:16.907Z,77.12
2017-08-10T03:34:46.166Z,77.17
2017-08-10T03:37:16.003Z,77.29
2017-08-10T03:39:45.049Z,77.63
2017-08-10T03:42:14.102Z,77.72
2017-08-10T03:44:43.163Z,77.92
2017-08-10T03:47:13.095Z,77.79
2017-08-10T03:49:44.922Z,77.69
2017-08-10T03:52:13.960Z,77.86
2017-08-10T03:54:43.007Z,77.76
2017-08-10T03:57:12.088Z,77.61
2017-08-10T03:59:41.155Z,77.65
2017-08-10T04:02:10.522Z,77.32
2017-08-10T04:04:39.560Z,77.52
2017-08-10T04:07:08.694Z,77.69
2017-08-10T04:09:37.781Z,78.30
2017-08-10T04:12:07.206Z,78.59
2017-08-10T04:14:37.031Z,78.49
2017-08-10T04:17:06.878Z,78.95
2017-08-10T04:19:35.955Z,79.50
2017-08-10T04:22:05.035Z,79.58
2017-08-10T04:24:34.839Z,79.69
2017-08-10T04:27:04.694Z,79.78
2017-08-10T04:29:33.746Z,79.92
2017-08-10T04:32:03.562Z,79.73
2017-08-10T04:34:33.400Z,79.46
2017-08-10T04:37:03.479Z,79.53
2017-08-10T04:39:32.573Z,79.63
2017-08-10T04:42:01.666Z,80.17
2017-08-10T04:44:30.739Z,80.33
2017-08-10T04:46:59.828Z,80.48
2017-08-10T04:49:28.907Z,80.38
2017-08-10T04:51:58.522Z,80.54
2017-08-10T04:54:27.613Z,80.08
2017-08-10T04:56:56.685Z,80.11
2017-08-10T04:59:26.520Z,79.90
2017-08-10T05:01:55.585Z,79.50
2017-08-10T05:04:25.409Z,79.46
2017-08-10T05:06:54.503Z,80.06
2017-08-10T05:09:23.886Z,79.67
2017-08-10T05:11:52.923Z,79.81
2017-08-10T05:14:21.982Z,80.21
2017-08-10T05:16:51.820Z,80.16
2017-08-10T05:19:20.911Z,80.27
2017-08-10T05:21:49.963Z,80.41
2017-08-10T05:24:19.044Z,80.31
2017-08-10T05:26:48.271Z,80.45
2017-08-10T05:29:18.119Z,79.86
2017-08-10T05:31:47.818Z,80.10
2017-08-10T05:34:17.683Z,79.49
2017-08-10T05:36:46.744Z,78.62
2017-08-10T05:39:17.665Z,78.82
2017-08-10T05:41:46.732Z,78.68
2017-08-10T05:44:16.550Z,78.80
2017-08-10T05:46:46.396Z,79.10
2017-08-10T05:49:15.583Z,79.41
2017-08-10T05:51:44.610Z,79.03
2017-08-10T05:54:13.671Z,77.98
2017-08-10T05:56:42.755Z,77.53
2017-08-10T05:59:11.838Z,77.42
2017-08-10T06:01:41.689Z,76.60
2017-08-10T06:04:11.063Z,76.22
2017-08-10T06:06:41.105Z,76.62
2017-08-10T06:09:10.211Z,76.74
2017-08-10T06:11:40.029Z,75.80
2017-08-10T06:14:09.134Z,73.31
2017-08-10T06:16:38.311Z,73.31
2017-08-10T06:19:07.403Z,73.67
2017-08-10T06:21:36.456Z,72.20
2017-08-10T06:24:05.524Z,72.49
2017-08-10T06:26:34.596Z,72.73
2017-08-10T06:29:03.677Z,73.37
2017-08-10T06:31:32.748Z,73.38
2017-08-10T06:34:02.596Z,73.52
2017-08-10T06:36:31.667Z,73.42
2017-08-10T06:39:00.760Z,73.71
2017-08-10T06:41:30.598Z,73.17
2017-08-10T06:43:59.664Z,73.20
2017-08-10T06:46:29.500Z,73.49
2017-08-10T06:48:59.293Z,73.07
2017-08-10T06:51:29.127Z,72.73
2017-08-10T06:53:58.307Z,72.74
2017-08-10T06:56:29.068Z,71.84
2017-08-10T06:58:58.162Z,71.87
2017-08-10T07:01:27.196Z,70.62
2017-08-10T07:03:56.255Z,70.52
2017-08-10T07:06:25.338Z,70.60
2017-08-10T07:08:54.903Z,70.85
2017-08-10T07:11:23.985Z,71.16
2017-08-10T07:13:53.039Z,71.41
2017-08-10T07:16:22.116Z,70.29
2017-08-10T07:18:51.945Z,70.29
2017-08-10T07:21:21.124Z,70.34
2017-08-10T07:23:50.966Z,70.54
2017-08-10T07:26:20.032Z,70.82
2017-08-10T07:28:50.433Z,70.59
2017-08-10T07:31:19.532Z,71.82
2017-08-10T07:33:49.267Z,72.03
2017-08-10T07:36:18.625Z,71.58
2017-08-10T07:38:47.672Z,71.07
2017-08-10T07:41:16.881Z,71.12
2017-08-10T07:43:45.922Z,71.32
2017-08-10T07:46:15.036Z,70.99
2017-08-10T07:48:44.076Z,71.16
2017-08-10T07:51:13.129Z,70.56
2017-08-10T07:53:42.971Z,70.59
2017-08-10T07:56:12.063Z,70.09
2017-08-10T07:58:41.872Z,70.12
2017-08-10T08:01:10.962Z,69.14
2017-08-10T08:03:40.015Z,69.05
2017-08-10T08:06:09.259Z,69.11
2017-08-10T08:08:39.059Z,69.10
2017-08-10T08:11:08.291Z,67.75
2017-08-10T08:13:37.365Z,67.84
2017-08-10T08:16:07.813Z,68.07
2017-08-10T08:18:37.504Z,68.99
2017-08-10T08:21:07.287Z,68.67
2017-08-10T08:23:37.135Z,68.77
2017-08-10T08:26:06.229Z,69.11
2017-08-10T08:28:35.288Z,69.19
2017-08-10T08:31:04.358Z,68.25
2017-08-10T08:33:33.946Z,67.58
2017-08-10T08:36:03.044Z,67.26
2017-08-10T08:38:32.136Z,67.64
2017-08-10T08:41:02.658Z,67.21
2017-08-10T08:43:31.736Z,65.13
2017-08-10T08:46:01.193Z,65.43
2017-08-10T08:48:30.372Z,66.24
2017-08-10T08:50:59.465Z,66.18
2017-08-10T08:53:28.922Z,65.90
2017-08-10T08:55:59.555Z,65.83
2017-08-10T08:58:29.591Z,64.84
2017-08-10T09:00:58.669Z,64.89
2017-08-10T09:03:29.739Z,64.33
2017-08-10T09:05:59.491Z,64.35
2017-08-10T09:08:29.294Z,64.59
2017-08-10T09:10:58.337Z,64.36
2017-08-10T09:13:27.419Z,64.86
2017-08-10T09:15:57.331Z,65.67
2017-08-10T09:18:27.201Z,66.02
2017-08-10T09:20:56.252Z,65.61
2017-08-10T09:23:25.345Z,65.39
2017-08-10T09:25:55.200Z,64.28
2017-08-10T09:28:24.368Z,64.39
2017-08-10T09:30:53.439Z,63.93
2017-08-10T09:33:23.279Z,64.10
2017-08-10T09:35:52.363Z,64.55
2017-08-10T09:38:21.412Z,65.69
2017-08-10T09:40:50.455Z,64.01
2017-08-10T09:43:19.529Z,63.92
2017-08-10T09:45:49.366Z,64.54
2017-08-10T09:48:18.444Z,64.17
2017-08-10T09:50:48.272Z,63.26
2017-08-10T09:53:17.475Z,62.12
2017-08-10T09:55:46.557Z,61.60
2017-08-10T09:58:16.971Z,61.05
2017-08-10T10:00:46.815Z,61.30
2017-08-10T10:03:15.885Z,60.10
2017-08-10T10:05:44.945Z,60.22
2017-08-10T10:08:14.047Z,60.75
2017-08-10T10:10:43.121Z,59.55
2017-08-10T10:13:12.176Z,59.57
2017-08-10T10:15:41.230Z,58.92
2017-08-10T10:18:10.300Z,59.54
2017-08-10T10:20:39.379Z,59.82
2017-08-10T10:23:08.760Z,60.53
2017-08-10T10:25:38.616Z,60.84
2017-08-10T10:28:07.732Z,61.04
2017-08-10T10:30:36.972Z,61.94
2017-08-10T10:33:06.808Z,57.53
2017-08-10T10:35:35.876Z,58.95
2017-08-10T10:38:05.716Z,60.55
2017-08-10T10:40:34.787Z,61.42
2017-08-10T10:43:04.081Z,61.85
2017-08-10T10:45:33.195Z,62.23
2017-08-10T10:48:02.286Z,62.82
2017-08-10T10:50:31.332Z,63.37
2017-08-10T10:53:00.371Z,62.73
2017-08-10T10:55:29.436Z,63.84
2017-08-10T10:57:58.520Z,64.14
2017-08-10T11:00:27.592Z,62.86
2017-08-10T11:02:56.640Z,63.00
2017-08-10T11:05:25.721Z,62.46
2017-08-10T11:07:54.821Z,63.57
2017-08-10T11:10:23.904Z,62.98
2017-08-10T11:12:52.964Z,63.96
2017-08-10T11:15:22.083Z,64.70
2017-08-10T11:17:51.173Z,64.21
2017-08-10T11:20:20.294Z,63.73
2017-08-10T11:22:49.421Z,62.09
2017-08-10T11:25:18.515Z,62.55
2017-08-10T11:27:47.628Z,62.24
2017-08-10T11:30:16.687Z,62.64
2017-08-10T11:32:45.748Z,63.45
2017-08-10T11:35:14.863Z,63.27
2017-08-10T11:37:43.935Z,62.93
2017-08-10T11:40:13.005Z,63.52
2017-08-10T11:42:42.069Z,63.80
2017-08-10T11:45:11.126Z,63.96
2017-08-10T11:47:40.195Z,63.97
2017-08-10T11:50:09.265Z,63.38
2017-08-10T11:52:38.327Z,63.40
2017-08-10T11:55:07.429Z,64.30
2017-08-10T11:57:36.511Z,64.36
2017-08-10T12:00:05.653Z,64.70
2017-08-10T12:02:34.696Z,64.77
2017-08-10T12:05:03.828Z,66.17
2017-08-10T12:07:32.891Z,66.75
2017-08-10T12:10:01.960Z,67.70
2017-08-10T12:12:31.016Z,69.00
2017-08-10T12:15:00.091Z,69.09
2017-08-10T12:17:29.230Z,69.98
2017-08-10T12:19:58.278Z,70.59
2017-08-10T12:22:27.352Z,70.53
2017-08-10T12:24:56.427Z,71.69
2017-08-10T12:27:25.517Z,72.50
2017-08-10T12:29:54.588Z,74.83
2017-08-10T12:32:23.696Z,74.04
2017-08-10T12:34:52.764Z,74.24
2017-08-10T12:37:21.823Z,74.90
2017-08-10T12:39:50.901Z,75.59
2017-08-10T12:42:19.972Z,74.32
2017-08-10T12:44:49.084Z,75.81
2017-08-10T12:47:18.176Z,75.86
2017-08-10T12:49:47.273Z,75.93
2017-08-10T12:52:16.343Z,77.42
2017-08-10T12:54:45.415Z,77.29
2017-08-10T12:57:14.543Z,77.14
2017-08-10T12:59:43.594Z,76.14
2017-08-10T13:02:12.656Z,75.59
2017-08-10T13:04:42.115Z,76.12
2017-08-10T13:07:11.184Z,76.45
2017-08-10T13:09:40.266Z,76.78
2017-08-10T13:12:09.349Z,77.17
2017-08-10T13:14:38.445Z,77.90
2017-08-10T13:17:07.493Z,77.95
2017-08-10T13:19:36.556Z,78.32
2017-08-10T13:22:05.634Z,78.15
2017-08-10T13:24:34.712Z,78.77
2017-08-10T13:27:03.801Z,78.52
2017-08-10T13:29:32.894Z,79.48
2017-08-10T13:32:01.943Z,79.27
2017-08-10T13:34:31.024Z,79.23
2017-08-10T13:37:00.069Z,79.68
2017-08-10T13:39:29.149Z,78.98
2017-08-10T13:41:58.215Z,79.09
2017-08-10T13:44:27.318Z,79.11
2017-08-10T13:46:56.353Z,78.72
2017-08-10T13:49:25.424Z,78.68
2017-08-10T13:51:54.481Z,78.50
2017-08-10T13:54:23.542Z,79.00
2017-08-10T13:56:52.609Z,78.17
2017-08-10T13:59:21.676Z,77.62
2017-08-10T14:01:50.745Z,76.32
2017-08-10T14:04:19.823Z,75.99
2017-08-10T14:06:48.885Z,75.45
2017-08-10T14:09:17.935Z,75.12
2017-08-10T14:11:46.999Z,75.57
2017-08-10T14:14:16.052Z,74.64
2017-08-10T14:16:45.142Z,74.84
2017-08-10T14:19:14.202Z,74.84
2017-08-10T14:21:43.288Z,74.67
2017-08-10T14:24:12.400Z,76.16
2017-08-10T14:26:41.456Z,75.20
2017-08-10T14:29:10.553Z,75.33
2017-08-10T14:31:39.627Z,75.68
2017-08-10T14:34:08.692Z,75.89
2017-08-10T14:36:37.764Z,75.90
2017-08-10T14:39:06.902Z,75.28
2017-08-10T14:41:35.961Z,75.23
2017-08-10T14:44:05.043Z,75.15
2017-08-10T14:46:34.136Z,75.83
2017-08-10T14:49:03.228Z,76.33
2017-08-10T14:51:32.291Z,76.77
2017-08-10T14:54:01.335Z,76.44
2017-08-10T14:56:30.400Z,76.62
2017-08-10T14:58:59.506Z,77.82
2017-08-10T15:01:28.592Z,77.85
2017-08-10T15:03:57.671Z,78.20
2017-08-10T15:06:26.718Z,78.91
2017-08-10T15:08:55.788Z,79.86
2017-08-10T15:11:24.853Z,80.80
2017-08-10T15:13:53.926Z,80.77
2017-08-10T15:16:23.001Z,80.72
2017-08-10T15:18:52.279Z,80.69
2017-08-10T15:21:21.341Z,79.88
2017-08-10T15:23:50.475Z,79.41
2017-08-10T15:26:19.524Z,79.35
2017-08-10T15:28:48.585Z,79.05
2017-08-10T15:31:17.651Z,78.70
2017-08-10T15:33:46.866Z,78.17
2017-08-10T15:36:15.939Z,77.77
2017-08-10T15:38:44.991Z,77.89
2017-08-10T15:41:14.145Z,77.60
2017-08-10T15:43:43.187Z,78.27
2017-08-10T15:46:12.273Z,77.51
2017-08-10T15:48:41.316Z,76.25
2017-08-10T15:51:10.403Z,76.87
2017-08-10T15:53:39.464Z,77.31
2017-08-10T15:56:08.534Z,76.53
2017-08-10T15:58:37.582Z,76.71
2017-08-10T16:01:06.663Z,76.80
2017-08-10T16:03:35.719Z,77.06
2017-08-10T16:06:04.815Z,77.08
2017-08-10T16:08:33.869Z,77.56
2017-08-10T16:11:02.969Z,77.77
2017-08-10T16:13:32.076Z,78.72
2017-08-10T16:16:01.135Z,78.23
2017-08-10T16:18:30.207Z,78.19
2017-08-10T16:20:59.267Z,78.36
2017-08-10T16:23:28.334Z,77.96
2017-08-10T16:25:57.417Z,78.11
2017-08-10T16:28:26.564Z,77.65
2017-08-10T16:30:55.611Z,78.27
2017-08-10T16:33:24.696Z,78.24
2017-08-10T16:35:53.764Z,77.89
2017-08-10T16:38:22.845Z,78.23
2017-08-10T16:40:51.915Z,78.44
2017-08-10T16:43:20.989Z,78.34
2017-08-10T16:45:50.083Z,78.89
2017-08-10T16:48:19.133Z,80.04
2017-08-10T16:50:48.208Z,79.72
2017-08-10T16:53:17.257Z,81.91
2017-08-10T16:55:46.355Z,81.32
2017-08-10T16:58:15.409Z,81.32
2017-08-10T17:00:44.506Z,82.36
2017-08-10T17:03:13.611Z,82.33
2017-08-10T17:05:42.684Z,81.75
2017-08-10T17:08:11.796Z,82.49
2017-08-10T17:10:40.865Z,81.81
2017-08-10T17:13:09.947Z,82.19
2017-08-10T17:15:39.027Z,82.84
2017-08-10T17:18:08.105Z,83.15
2017-08-10T17:20:37.194Z,83.26
2017-08-10T17:23:06.263Z,83.70
2017-08-10T17:25:35.308Z,83.85
2017-08-10T17:28:04.398Z,84.02
2017-08-10T17:30:33.488Z,84.22
2017-08-10T17:33:02.551Z,83.96
2017-08-10T17:35:31.635Z,84.14
2017-08-10T17:38:00.715Z,84.67
2017-08-10T17:40:29.773Z,84.39
2017-08-10T17:42:58.878Z,84.97
2017-08-10T17:45:27.936Z,84.96
2017-08-10T17:47:56.989Z,84.51
2017-08-10T17:50:26.047Z,84.38
2017-08-10T17:52:55.118Z,84.93
2017-08-10T17:55:24.318Z,85.35
2017-08-10T17:57:53.411Z,85.41
2017-08-10T18:00:22.499Z,85.39
2017-08-10T18:02:51.560Z,85.17
2017-08-10T18:05:20.719Z,84.60
2017-08-10T18:07:49.768Z,84.97
2017-08-10T18:10:18.829Z,85.25
2017-08-10T18:12:48.129Z,85.13
2017-08-10T18:15:17.257Z,85.65
2017-08-10T18:17:46.312Z,85.79
2017-08-10T18:20:15.384Z,85.88
2017-08-10T18:22:44.497Z,86.32
2017-08-10T18:25:13.560Z,85.83
2017-08-10T18:27:42.621Z,85.86
2017-08-10T18:30:11.782Z,86.08
2017-08-10T18:32:40.847Z,86.26
2017-08-10T18:35:09.959Z,86.42
2017-08-10T18:37:39.014Z,86.70
2017-08-10T18:40:08.062Z,86.72
2017-08-10T18:42:37.129Z,86.91
2017-08-10T18:45:06.265Z,86.95
2017-08-10T18:47:35.296Z,86.97
2017-08-10T18:50:04.507Z,87.00
2017-08-10T18:52:33.575Z,86.85
2017-08-10T18:55:02.687Z,86.67
2017-08-10T18:57:31.783Z,86.73
2017-08-10T19:00:00.981Z,86.89
2017-08-10T19:02:30.046Z,86.84
2017-08-10T19:04:59.151Z,87.08
2017-08-10T19:07:28.357Z,86.96
2017-08-10T19:09:57.528Z,86.71
2017-08-10T19:12:26.774Z,87.10
2017-08-10T19:14:55.916Z,87.38
2017-08-10T19:17:25.069Z,87.68
2017-08-10T19:19:54.453Z,87.72
2017-08-10T19:22:23.667Z,87.59
2017-08-10T19:24:52.978Z,87.53
2017-08-10T19:27:22.319Z,88.06
2017-08-10T19:29:51.568Z,87.75
2017-08-10T19:32:21.659Z,87.67
2017-08-10T19:34:51.048Z,87.66
2017-08-10T19:37:20.489Z,87.76
2017-08-10T19:39:49.864Z,87.73
2017-08-10T19:42:19.441Z,87.76
2017-08-10T19:44:48.779Z,87.89
2017-08-10T19:47:18.173Z,87.95
2017-08-10T19:49:47.598Z,87.74
2017-08-10T19:52:16.971Z,87.11
2017-08-10T19:54:46.345Z,87.26
2017-08-10T19:57:15.580Z,86.84
2017-08-10T19:59:44.846Z,86.83
2017-08-10T20:02:14.017Z,86.77
2017-08-10T20:04:43.381Z,86.83
2017-08-10T20:07:12.563Z,87.16
2017-08-10T20:09:41.760Z,86.85
2017-08-10T20:12:10.902Z,86.99
2017-08-10T20:14:39.954Z,87.04
2017-08-10T20:17:09.073Z,87.02
2017-08-10T20:19:38.177Z,87.20
2017-08-10T20:22:07.378Z,87.47
2017-08-10T20:24:36.576Z,86.95
2017-08-10T20:27:05.978Z,87.38
2017-08-10T20:29:35.115Z,87.57
2017-08-10T20:32:04.190Z,87.63
2017-08-10T20:34:33.268Z,87.04
2017-08-10T20:37:02.325Z,86.81
2017-08-10T20:39:31.422Z,86.68
2017-08-10T20:42:00.488Z,86.74
2017-08-10T20:44:29.573Z,86.64
2017-08-10T20:46:58.631Z,86.98
2017-08-10T20:49:27.678Z,87.05
2017-08-10T20:51:56.734Z,87.46
2017-08-10T20:54:25.840Z,88.02
2017-08-10T20:56:54.884Z,87.58
2017-08-10T20:59:23.991Z,87.36
2017-08-10T21:01:53.070Z,86.99
2017-08-10T21:04:22.139Z,87.44
2017-08-10T21:06:51.214Z,88.22
2017-08-10T21:09:20.285Z,88.47
2017-08-10T21:11:49.386Z,89.15
2017-08-10T21:14:18.440Z,88.95
2017-08-10T21:16:47.515Z,88.77
2017-08-10T21:19:16.564Z,88.49
2017-08-10T21:21:45.665Z,88.45
2017-08-10T21:24:14.770Z,88.42
2017-08-10T21:26:43.787Z,88.11
2017-08-10T21:29:12.878Z,87.77
2017-08-10T21:31:41.946Z,88.03
2017-08-10T21:34:11.025Z,87.79
2017-08-10T21:36:40.094Z,87.36
2017-08-10T21:39:09.324Z,87.33
2017-08-10T21:41:38.373Z,87.65
2017-08-10T21:44:07.453Z,88.67
2017-08-10T21:46:36.503Z,88.99
2017-08-10T21:49:05.593Z,88.87
2017-08-10T21:51:34.704Z,89.11
2017-08-10T21:54:03.757Z,89.09
2017-08-10T21:56:32.855Z,89.20
2017-08-10T21:59:01.922Z,89.76
2017-08-10T22:01:31.016Z,90.42
2017-08-10T22:04:00.077Z,90.44
2017-08-10T22:06:29.223Z,90.75
2017-08-10T22:08:58.319Z,91.14
2017-08-10T22:11:27.396Z,91.23
2017-08-10T22:13:56.469Z,91.59
2017-08-10T22:16:25.553Z,91.51
2017-08-10T22:18:54.587Z,91.34
2017-08-10T22:21:23.662Z,91.61
2017-08-10T22:23:52.725Z,91.95
2017-08-10T22:26:21.793Z,91.97
2017-08-10T22:28:50.872Z,91.81
2017-08-10T22:31:19.942Z,91.67
2017-08-10T22:33:48.994Z,91.59
2017-08-10T22:36:18.097Z,91.49
2017-08-10T22:38:47.143Z,91.62
2017-08-10T22:41:16.212Z,91.85
2017-08-10T22:43:45.279Z,91.96
2017-08-10T22:46:14.376Z,91.87
2017-08-10T22:48:43.676Z,91.72
2017-08-10T22:51:12.726Z,91.37
2017-08-10T22:53:41.789Z,91.22
2017-08-10T22:56:10.876Z,91.12
2017-08-10T22:58:39.924Z,90.64
2017-08-10T23:01:09.195Z,90.45
2017-08-10T23:03:38.251Z,90.34
2017-08-10T23:06:07.313Z,90.29
2017-08-10T23:08:36.364Z,89.72
2017-08-10T23:11:05.453Z,89.41
2017-08-10T23:13:34.540Z,90.09
2017-08-10T23:16:03.624Z,89.53
2017-08-10T23:18:32.693Z,89.53
2017-08-10T23:21:02.644Z,89.26
2017-08-10T23:23:31.716Z,88.97
2017-08-10T23:26:00.801Z,88.91
2017-08-10T23:28:29.863Z,88.93
2017-08-10T23:30:58.925Z,88.94
2017-08-10T23:33:27.983Z,88.64
2017-08-10T23:35:57.060Z,88.72
2017-08-10T23:38:26.115Z,88.57
2017-08-10T23:40:55.181Z,89.04
2017-08-10T23:43:24.266Z,89.53
2017-08-10T23:45:53.315Z,89.64
2017-08-10T23:48:22.395Z,89.54
2017-08-10T23:50:51.483Z,89.37
2017-08-10T23:53:20.543Z,89.50
2017-08-10T23:55:49.609Z,89.16
2017-08-10T23:58:18.659Z,89.06
